Coral Island — 9HA4227 — position and weather

sailwx.info

Track history (hours):
 
Tides and Currents Weather Stations Pressure Air Temp Water Temp Dewpoint Dewpoint Depression Visibility Wind Speed Wind Dir Waves Ship Positions

Coral Island

Last reported at 2017-Dec-11 17:00 UTC. Time now 2017-Dec-12 12:40 UTC.
Position N 40°28' E 017°13'.

Length 189 m; draft 7.9 m.

Type: Cargo ship. MMSI: 249397000.

Date/timePositionNaut miles runAvg speedWind from/ knotsBaromVisibWave heightAir tempDewpointWater temp
2017-Dec-11 17:00N 40°28' E 017°13'0 0.0
2017-Dec-11 16:30N 40°28' E 017°13'0 0.0
2017-Dec-11 16:00N 40°28' E 017°13'0 0.0
2017-Dec-11 15:30N 40°28' E 017°13'0 0.0
2017-Dec-11 15:00N 40°28' E 017°13'0 0.0
2017-Dec-11 14:30N 40°28' E 017°13'0 0.0
2017-Dec-11 14:00N 40°28' E 017°13'0 0.0
2017-Dec-11 13:30N 40°28' E 017°13'0 0.0
2017-Dec-11 13:00N 40°28' E 017°13'0 0.0
2017-Dec-11 12:30N 40°28' E 017°13'0 0.0
2017-Dec-11 12:00N 40°28' E 017°13'0 0.0
2017-Dec-11 11:30N 40°28' E 017°13'0 0.0
2017-Dec-11 11:00N 40°28' E 017°13'0 0.0
2017-Dec-11 10:30N 40°28' E 017°13'0 0.0
2017-Dec-11 10:00N 40°28' E 017°13'0 0.0
2017-Dec-11 09:30N 40°28' E 017°13'0 0.0
2017-Dec-11 09:00N 40°28' E 017°13'0 0.1
2017-Dec-11 08:30N 40°28' E 017°13'0 0.0
2017-Dec-11 08:00N 40°28' E 017°13'0 0.0
2017-Dec-11 07:30N 40°28' E 017°13'0 0.0
2017-Dec-11 07:00N 40°28' E 017°13'0 0.0
2017-Dec-11 06:30N 40°28' E 017°14'0 0.0
2017-Dec-11 06:00N 40°28' E 017°14'0 0.0
2017-Dec-11 05:30N 40°28' E 017°14'0 0.0
2017-Dec-11 05:00N 40°28' E 017°14'0 0.0
2017-Dec-11 04:30N 40°28' E 017°14'0 0.0
2017-Dec-11 04:00N 40°28' E 017°14'0 0.1
2017-Dec-11 03:30N 40°28' E 017°14'0 0.0
2017-Dec-11 03:00N 40°28' E 017°14'0 0.1
2017-Dec-11 02:30N 40°28' E 017°14'0 0.0
2017-Dec-11 02:00N 40°28' E 017°14'0 0.1
2017-Dec-11 01:30N 40°28' E 017°14'0 0.1
2017-Dec-11 01:00N 40°28' E 017°14'0 0.0
2017-Dec-11 00:30N 40°28' E 017°14'2 3.8
2017-Dec-11 00:00N 40°26' E 017°12'4 8.4
2017-Dec-10 23:30N 40°23' E 017°08'612.2
2017-Dec-10 23:00N 40°17' E 017°07'612.1
2017-Dec-10 22:30N 40°12' E 017°11'611.3
2017-Dec-10 22:00N 40°08' E 017°16'4 9.0
2017-Dec-10 21:30N 40°04' E 017°20'510.6
2017-Dec-10 21:00N 40°00' E 017°24'4 8.0
2017-Dec-10 20:30N 39°57' E 017°27'612.6
2017-Dec-10 20:00N 39°52' E 017°32'612.1
2017-Dec-10 19:29N 39°47' E 017°37'  
2017-Dec-04 09:18N 31°37' E 031°46'0 0.0
2017-Dec-04 09:00N 31°37' E 031°46'0 0.0
2017-Dec-04 08:30N 31°37' E 031°46'0 0.0
2017-Dec-04 05:03N 31°37' E 031°46'0 0.0
2017-Dec-04 04:42N 31°37' E 031°46'0 0.0
2017-Dec-04 04:15N 31°37' E 031°46'0 0.0
2017-Dec-04 04:00N 31°37' E 031°46'0 0.0
2017-Dec-04 03:27N 31°37' E 031°46'0 0.0
2017-Dec-03 20:03N 31°37' E 031°46'0 0.0
2017-Dec-03 19:51N 31°37' E 031°46'0 0.0
2017-Dec-03 19:27N 31°37' E 031°46'0 0.0
2017-Dec-03 19:00N 31°37' E 031°46'0 0.0
2017-Dec-03 18:27N 31°37' E 031°46'0 0.0
2017-Dec-03 18:00N 31°37' E 031°46'0 0.0
2017-Dec-03 17:30N 31°37' E 031°46'0 0.0
2017-Dec-03 17:00N 31°37' E 031°46'0 0.0
2017-Dec-03 16:30N 31°37' E 031°46'0 0.0
2017-Dec-03 16:00N 31°37' E 031°46'0 0.0
2017-Dec-03 15:30N 31°37' E 031°46'0 0.0
2017-Dec-03 14:51N 31°37' E 031°46'0 0.0
2017-Dec-03 07:45N 31°37' E 031°46'0 0.0
2017-Dec-03 07:30N 31°37' E 031°46'0 0.0
2017-Dec-03 05:42N 31°37' E 031°46'0 0.0
2017-Dec-03 05:24N 31°37' E 031°46'0 0.0
2017-Dec-02 21:39N 31°37' E 031°46'0 0.0
2017-Dec-02 21:30N 31°37' E 031°46'0 0.0
2017-Dec-02 20:09N 31°37' E 031°46'0 0.0
2017-Dec-02 20:00N 31°37' E 031°46'  
Track history (hours):
 
Tides and Currents Weather Stations Pressure Air Temp Water Temp Dewpoint Dewpoint Depression Visibility Wind Speed Wind Dir Waves Ship Positions

Coral Island

Last reported at 2017-Dec-11 17:00 UTC. Time now 2017-Dec-12 12:40 UTC.
Position N 40°28' E 017°13'.

Length 189 m; draft 7.9 m.

Type: Cargo ship. MMSI: 249397000.

Date/timePositionNaut miles runAvg speedWind from/ knotsBaromVisibWave heightAir tempDewpointWater temp
2017-Dec-11 17:00N 40°28' E 017°13'0 0.0
2017-Dec-11 16:30N 40°28' E 017°13'0 0.0
2017-Dec-11 16:00N 40°28' E 017°13'0 0.0
2017-Dec-11 15:30N 40°28' E 017°13'0 0.0
2017-Dec-11 15:00N 40°28' E 017°13'0 0.0
2017-Dec-11 14:30N 40°28' E 017°13'0 0.0
2017-Dec-11 14:00N 40°28' E 017°13'0 0.0
2017-Dec-11 13:30N 40°28' E 017°13'0 0.0
2017-Dec-11 13:00N 40°28' E 017°13'0 0.0
2017-Dec-11 12:30N 40°28' E 017°13'0 0.0
2017-Dec-11 12:00N 40°28' E 017°13'0 0.0
2017-Dec-11 11:30N 40°28' E 017°13'0 0.0
2017-Dec-11 11:00N 40°28' E 017°13'0 0.0
2017-Dec-11 10:30N 40°28' E 017°13'0 0.0
2017-Dec-11 10:00N 40°28' E 017°13'0 0.0
2017-Dec-11 09:30N 40°28' E 017°13'0 0.0
2017-Dec-11 09:00N 40°28' E 017°13'0 0.1
2017-Dec-11 08:30N 40°28' E 017°13'0 0.0
2017-Dec-11 08:00N 40°28' E 017°13'0 0.0
2017-Dec-11 07:30N 40°28' E 017°13'0 0.0
2017-Dec-11 07:00N 40°28' E 017°13'0 0.0
2017-Dec-11 06:30N 40°28' E 017°14'0 0.0
2017-Dec-11 06:00N 40°28' E 017°14'0 0.0
2017-Dec-11 05:30N 40°28' E 017°14'0 0.0
2017-Dec-11 05:00N 40°28' E 017°14'0 0.0
2017-Dec-11 04:30N 40°28' E 017°14'0 0.0
2017-Dec-11 04:00N 40°28' E 017°14'0 0.1
2017-Dec-11 03:30N 40°28' E 017°14'0 0.0
2017-Dec-11 03:00N 40°28' E 017°14'0 0.1
2017-Dec-11 02:30N 40°28' E 017°14'0 0.0
2017-Dec-11 02:00N 40°28' E 017°14'0 0.1
2017-Dec-11 01:30N 40°28' E 017°14'0 0.1
2017-Dec-11 01:00N 40°28' E 017°14'0 0.0
2017-Dec-11 00:30N 40°28' E 017°14'2 3.8
2017-Dec-11 00:00N 40°26' E 017°12'4 8.4
2017-Dec-10 23:30N 40°23' E 017°08'612.2
2017-Dec-10 23:00N 40°17' E 017°07'612.1
2017-Dec-10 22:30N 40°12' E 017°11'611.3
2017-Dec-10 22:00N 40°08' E 017°16'4 9.0
2017-Dec-10 21:30N 40°04' E 017°20'510.6
2017-Dec-10 21:00N 40°00' E 017°24'4 8.0
2017-Dec-10 20:30N 39°57' E 017°27'612.6
2017-Dec-10 20:00N 39°52' E 017°32'612.1
2017-Dec-10 19:29N 39°47' E 017°37'  
2017-Dec-04 09:18N 31°37' E 031°46'0 0.0
2017-Dec-04 09:00N 31°37' E 031°46'0 0.0
2017-Dec-04 08:30N 31°37' E 031°46'0 0.0
2017-Dec-04 05:03N 31°37' E 031°46'0 0.0
2017-Dec-04 04:42N 31°37' E 031°46'0 0.0
2017-Dec-04 04:15N 31°37' E 031°46'0 0.0
2017-Dec-04 04:00N 31°37' E 031°46'0 0.0
2017-Dec-04 03:27N 31°37' E 031°46'0 0.0
2017-Dec-03 20:03N 31°37' E 031°46'0 0.0
2017-Dec-03 19:51N 31°37' E 031°46'0 0.0
2017-Dec-03 19:27N 31°37' E 031°46'0 0.0
2017-Dec-03 19:00N 31°37' E 031°46'0 0.0
2017-Dec-03 18:27N 31°37' E 031°46'0 0.0
2017-Dec-03 18:00N 31°37' E 031°46'0 0.0
2017-Dec-03 17:30N 31°37' E 031°46'0 0.0
2017-Dec-03 17:00N 31°37' E 031°46'0 0.0
2017-Dec-03 16:30N 31°37' E 031°46'0 0.0
2017-Dec-03 16:00N 31°37' E 031°46'0 0.0
2017-Dec-03 15:30N 31°37' E 031°46'0 0.0
2017-Dec-03 14:51N 31°37' E 031°46'0 0.0
2017-Dec-03 07:45N 31°37' E 031°46'0 0.0
2017-Dec-03 07:30N 31°37' E 031°46'0 0.0
2017-Dec-03 05:42N 31°37' E 031°46'0 0.0
2017-Dec-03 05:24N 31°37' E 031°46'0 0.0
2017-Dec-02 21:39N 31°37' E 031°46'0 0.0
2017-Dec-02 21:30N 31°37' E 031°46'0 0.0
2017-Dec-02 20:09N 31°37' E 031°46'0 0.0
2017-Dec-02 20:00N 31°37' E 031°46'  

Dump ship's entire track history